Greenway Plaza, Texas
Current Conditions -  °F | °C
As of 3:15 PM on Sunday 23 Nov 2014 (Local Time) from KMCJ Reporting Station
Clear Clear  
Wind Chill: 81°   Ceiling: Unl
Heat Index: 81°   Visibility: 10mi
Dew Point: 46°   Wind: 21mph
Humidity: 30%   Direction: 220°SW
Pressure: 29.51"   Gusts: 33mph
Location:  29.7287°N, 95.436°W
Report Text: KMCJ 232115Z AUTO 22018G29KT 10SM CLR 27/08 A2951 RMK AO1
Loading
Personal Weather Stations






























Interactive Weather Map New forecast layout! Learn more

10-Day Weather Forecast

Advertisements
Track Severe Weather on mobile